sensor_id;sensor_type;location;lat;lon;timestamp;P1;durP1;ratioP1;P2;durP2;ratioP2
21120;SDS011;12519;43.318;21.898;2023-01-29T00:03:00;23.0;;;16.0;;
21120;SDS011;12519;43.318;21.898;2023-01-29T00:07:37;23.0;;;16.0;;
21120;SDS011;12519;43.318;21.898;2023-01-29T00:12:13;30.0;;;18.0;;
21120;SDS011;12519;43.318;21.898;2023-01-29T00:16:49;30.0;;;18.0;;
21120;SDS011;12519;43.318;21.898;2023-01-29T00:21:25;25.0;;;17.0;;
21120;SDS011;12519;43.318;21.898;2023-01-29T00:26:02;25.0;;;17.0;;
21120;SDS011;12519;43.318;21.898;2023-01-29T00:30:39;20.0;;;16.0;;
21120;SDS011;12519;43.318;21.898;2023-01-29T00:35:16;20.0;;;16.0;;
21120;SDS011;12519;43.318;21.898;2023-01-29T00:39:52;19.0;;;16.0;;
21120;SDS011;12519;43.318;21.898;2023-01-29T00:44:28;19.0;;;16.0;;
21120;SDS011;12519;43.318;21.898;2023-01-29T00:49:08;19.0;;;16.0;;
21120;SDS011;12519;43.318;21.898;2023-01-29T00:53:46;18.0;;;15.0;;
21120;SDS011;12519;43.318;21.898;2023-01-29T00:58:22;18.0;;;15.0;;
21120;SDS011;12519;43.318;21.898;2023-01-29T01:02:59;19.0;;;15.0;;
21120;SDS011;12519;43.318;21.898;2023-01-29T01:07:35;19.0;;;15.0;;
21120;SDS011;12519;43.318;21.898;2023-01-29T01:12:12;20.0;;;15.0;;
21120;SDS011;12519;43.318;21.898;2023-01-29T01:16:49;20.0;;;15.0;;
21120;SDS011;12519;43.318;21.898;2023-01-29T01:21:25;18.0;;;14.0;;
21120;SDS011;12519;43.318;21.898;2023-01-29T01:26:08;18.0;;;14.0;;
21120;SDS011;12519;43.318;21.898;2023-01-29T01:30:45;16.0;;;12.0;;
21120;SDS011;12519;43.318;21.898;2023-01-29T01:35:21;16.0;;;12.0;;
21120;SDS011;12519;43.318;21.898;2023-01-29T01:39:58;15.0;;;12.0;;
21120;SDS011;12519;43.318;21.898;2023-01-29T01:45:21;15.0;;;12.0;;
21120;SDS011;12519;43.318;21.898;2023-01-29T01:50:13;14.0;;;13.0;;
21120;SDS011;12519;43.318;21.898;2023-01-29T01:54:59;14.0;;;13.0;;
21120;SDS011;12519;43.318;21.898;2023-01-29T01:59:40;14.0;;;13.0;;
21120;SDS011;12519;43.318;21.898;2023-01-29T02:04:29;13.0;;;12.0;;
21120;SDS011;12519;43.318;21.898;2023-01-29T02:09:19;13.0;;;12.0;;
21120;SDS011;12519;43.318;21.898;2023-01-29T02:14:11;12.0;;;11.0;;
21120;SDS011;12519;43.318;21.898;2023-01-29T02:18:49;12.0;;;11.0;;
21120;SDS011;12519;43.318;21.898;2023-01-29T02:24:26;16.0;;;12.0;;
21120;SDS011;12519;43.318;21.898;2023-01-29T02:30:15;19.0;;;14.0;;
21120;SDS011;12519;43.318;21.898;2023-01-29T02:35:28;19.0;;;14.0;;
21120;SDS011;12519;43.318;21.898;2023-01-29T02:40:35;16.0;;;13.0;;
21120;SDS011;12519;43.318;21.898;2023-01-29T02:45:43;16.0;;;13.0;;
21120;SDS011;12519;43.318;21.898;2023-01-29T02:50:54;13.0;;;12.0;;
21120;SDS011;12519;43.318;21.898;2023-01-29T02:55:48;13.0;;;12.0;;
21120;SDS011;12519;43.318;21.898;2023-01-29T03:00:43;12.0;;;12.0;;
21120;SDS011;12519;43.318;21.898;2023-01-29T03:05:38;12.0;;;12.0;;
21120;SDS011;12519;43.318;21.898;2023-01-29T03:10:50;12.0;;;11.0;;
21120;SDS011;12519;43.318;21.898;2023-01-29T03:15:42;12.0;;;11.0;;
21120;SDS011;12519;43.318;21.898;2023-01-29T03:20:32;16.0;;;12.0;;
21120;SDS011;12519;43.318;21.898;2023-01-29T03:25:23;16.0;;;12.0;;
21120;SDS011;12519;43.318;21.898;2023-01-29T03:30:15;20.0;;;12.0;;
21120;SDS011;12519;43.318;21.898;2023-01-29T03:35:09;20.0;;;12.0;;
21120;SDS011;12519;43.318;21.898;2023-01-29T03:40:08;18.0;;;13.0;;
21120;SDS011;12519;43.318;21.898;2023-01-29T03:45:04;18.0;;;13.0;;
21120;SDS011;12519;43.318;21.898;2023-01-29T03:50:30;17.0;;;14.0;;
21120;SDS011;12519;43.318;21.898;2023-01-29T03:56:01;17.0;;;14.0;;
21120;SDS011;12519;43.318;21.898;2023-01-29T04:01:22;15.0;;;12.0;;
21120;SDS011;12519;43.318;21.898;2023-01-29T04:06:25;15.0;;;12.0;;
21120;SDS011;12519;43.318;21.898;2023-01-29T04:11:20;13.0;;;11.0;;
21120;SDS011;12519;43.318;21.898;2023-01-29T04:16:05;13.0;;;11.0;;
21120;SDS011;12519;43.318;21.898;2023-01-29T04:20:55;14.0;;;12.0;;
21120;SDS011;12519;43.318;21.898;2023-01-29T04:25:44;14.0;;;12.0;;
21120;SDS011;12519;43.318;21.898;2023-01-29T04:30:57;16.0;;;12.0;;
21120;SDS011;12519;43.318;21.898;2023-01-29T04:36:02;16.0;;;12.0;;
21120;SDS011;12519;43.318;21.898;2023-01-29T04:41:21;16.0;;;12.0;;
21120;SDS011;12519;43.318;21.898;2023-01-29T04:46:17;16.0;;;12.0;;
21120;SDS011;12519;43.318;21.898;2023-01-29T04:51:17;15.0;;;11.0;;
21120;SDS011;12519;43.318;21.898;2023-01-29T04:56:28;15.0;;;11.0;;
21120;SDS011;12519;43.318;21.898;2023-01-29T05:01:32;14.0;;;12.0;;
21120;SDS011;12519;43.318;21.898;2023-01-29T05:06:15;14.0;;;12.0;;
21120;SDS011;12519;43.318;21.898;2023-01-29T05:10:59;14.0;;;13.0;;
21120;SDS011;12519;43.318;21.898;2023-01-29T05:15:39;14.0;;;13.0;;
21120;SDS011;12519;43.318;21.898;2023-01-29T05:20:37;13.0;;;12.0;;
21120;SDS011;12519;43.318;21.898;2023-01-29T05:25:24;13.0;;;12.0;;
21120;SDS011;12519;43.318;21.898;2023-01-29T05:30:09;12.0;;;11.0;;
21120;SDS011;12519;43.318;21.898;2023-01-29T05:34:47;12.0;;;11.0;;
21120;SDS011;12519;43.318;21.898;2023-01-29T05:39:23;12.0;;;11.0;;
21120;SDS011;12519;43.318;21.898;2023-01-29T05:43:59;15.0;;;12.0;;
21120;SDS011;12519;43.318;21.898;2023-01-29T05:48:36;15.0;;;12.0;;
21120;SDS011;12519;43.318;21.898;2023-01-29T05:53:12;18.0;;;13.0;;
21120;SDS011;12519;43.318;21.898;2023-01-29T05:57:49;18.0;;;13.0;;
21120;SDS011;12519;43.318;21.898;2023-01-29T06:02:28;15.0;;;12.0;;
21120;SDS011;12519;43.318;21.898;2023-01-29T06:07:05;15.0;;;12.0;;
21120;SDS011;12519;43.318;21.898;2023-01-29T06:11:42;12.0;;;11.0;;
21120;SDS011;12519;43.318;21.898;2023-01-29T06:16:19;12.0;;;11.0;;
21120;SDS011;12519;43.318;21.898;2023-01-29T06:20:59;13.0;;;12.0;;
21120;SDS011;12519;43.318;21.898;2023-01-29T06:25:44;13.0;;;12.0;;
21120;SDS011;12519;43.318;21.898;2023-01-29T06:30:21;14.0;;;13.0;;
21120;SDS011;12519;43.318;21.898;2023-01-29T06:34:58;14.0;;;13.0;;
21120;SDS011;12519;43.318;21.898;2023-01-29T06:39:35;14.0;;;13.0;;
21120;SDS011;12519;43.318;21.898;2023-01-29T06:44:11;16.0;;;13.0;;
21120;SDS011;12519;43.318;21.898;2023-01-29T06:48:48;16.0;;;13.0;;
21120;SDS011;12519;43.318;21.898;2023-01-29T06:53:24;17.0;;;13.0;;
21120;SDS011;12519;43.318;21.898;2023-01-29T06:58:04;17.0;;;13.0;;
21120;SDS011;12519;43.318;21.898;2023-01-29T07:02:47;18.0;;;16.0;;
21120;SDS011;12519;43.318;21.898;2023-01-29T07:07:24;18.0;;;16.0;;
21120;SDS011;12519;43.318;21.898;2023-01-29T07:12:00;20.0;;;18.0;;
21120;SDS011;12519;43.318;21.898;2023-01-29T07:16:38;20.0;;;18.0;;
21120;SDS011;12519;43.318;21.898;2023-01-29T07:21:14;19.0;;;16.0;;
21120;SDS011;12519;43.318;21.898;2023-01-29T07:25:50;19.0;;;16.0;;
21120;SDS011;12519;43.318;21.898;2023-01-29T07:30:27;18.0;;;13.0;;
21120;SDS011;12519;43.318;21.898;2023-01-29T07:35:06;18.0;;;13.0;;
21120;SDS011;12519;43.318;21.898;2023-01-29T07:39:45;18.0;;;13.0;;
21120;SDS011;12519;43.318;21.898;2023-01-29T07:44:21;18.0;;;14.0;;
21120;SDS011;12519;43.318;21.898;2023-01-29T07:48:58;18.0;;;14.0;;
21120;SDS011;12519;43.318;21.898;2023-01-29T07:53:35;19.0;;;15.0;;
21120;SDS011;12519;43.318;21.898;2023-01-29T07:58:11;19.0;;;15.0;;
21120;SDS011;12519;43.318;21.898;2023-01-29T08:02:48;18.0;;;14.0;;
21120;SDS011;12519;43.318;21.898;2023-01-29T08:07:25;18.0;;;14.0;;
21120;SDS011;12519;43.318;21.898;2023-01-29T08:12:01;16.0;;;14.0;;
21120;SDS011;12519;43.318;21.898;2023-01-29T08:16:39;16.0;;;14.0;;
21120;SDS011;12519;43.318;21.898;2023-01-29T08:21:15;18.0;;;14.0;;
21120;SDS011;12519;43.318;21.898;2023-01-29T08:25:51;18.0;;;14.0;;
21120;SDS011;12519;43.318;21.898;2023-01-29T08:30:32;19.0;;;14.0;;
21120;SDS011;12519;43.318;21.898;2023-01-29T08:35:10;19.0;;;14.0;;
21120;SDS011;12519;43.318;21.898;2023-01-29T08:39:46;19.0;;;14.0;;
21120;SDS011;12519;43.318;21.898;2023-01-29T08:44:23;20.0;;;14.0;;
21120;SDS011;12519;43.318;21.898;2023-01-29T08:48:59;20.0;;;14.0;;
21120;SDS011;12519;43.318;21.898;2023-01-29T08:53:36;20.0;;;15.0;;
21120;SDS011;12519;43.318;21.898;2023-01-29T08:58:12;20.0;;;15.0;;
21120;SDS011;12519;43.318;21.898;2023-01-29T09:02:49;21.0;;;16.0;;
21120;SDS011;12519;43.318;21.898;2023-01-29T09:07:28;21.0;;;16.0;;
21120;SDS011;12519;43.318;21.898;2023-01-29T09:12:05;22.0;;;16.0;;
21120;SDS011;12519;43.318;21.898;2023-01-29T09:16:42;22.0;;;16.0;;
21120;SDS011;12519;43.318;21.898;2023-01-29T09:21:18;20.0;;;16.0;;
21120;SDS011;12519;43.318;21.898;2023-01-29T09:25:55;20.0;;;16.0;;
21120;SDS011;12519;43.318;21.898;2023-01-29T09:30:33;20.0;;;16.0;;
21120;SDS011;12519;43.318;21.898;2023-01-29T09:35:10;17.0;;;16.0;;
21120;SDS011;12519;43.318;21.898;2023-01-29T09:39:46;17.0;;;16.0;;
21120;SDS011;12519;43.318;21.898;2023-01-29T09:44:32;20.0;;;16.0;;
21120;SDS011;12519;43.318;21.898;2023-01-29T09:49:40;20.0;;;16.0;;
21120;SDS011;12519;43.318;21.898;2023-01-29T09:54:36;22.0;;;17.0;;
21120;SDS011;12519;43.318;21.898;2023-01-29T09:59:34;22.0;;;17.0;;
21120;SDS011;12519;43.318;21.898;2023-01-29T10:04:49;18.0;;;16.0;;
21120;SDS011;12519;43.318;21.898;2023-01-29T10:10:26;18.0;;;16.0;;
21120;SDS011;12519;43.318;21.898;2023-01-29T10:15:46;15.0;;;15.0;;
21120;SDS011;12519;43.318;21.898;2023-01-29T10:21:36;16.0;;;16.0;;
21120;SDS011;12519;43.318;21.898;2023-01-29T10:27:13;16.0;;;16.0;;
21120;SDS011;12519;43.318;21.898;2023-01-29T10:31:57;17.0;;;16.0;;
21120;SDS011;12519;43.318;21.898;2023-01-29T10:36:43;17.0;;;16.0;;
21120;SDS011;12519;43.318;21.898;2023-01-29T10:41:47;20.0;;;17.0;;
21120;SDS011;12519;43.318;21.898;2023-01-29T10:47:23;20.0;;;17.0;;
21120;SDS011;12519;43.318;21.898;2023-01-29T10:53:30;22.0;;;18.0;;
21120;SDS011;12519;43.318;21.898;2023-01-29T10:58:48;22.0;;;18.0;;
21120;SDS011;12519;43.318;21.898;2023-01-29T11:03:33;22.0;;;18.0;;
21120;SDS011;12519;43.318;21.898;2023-01-29T11:08:15;22.0;;;18.0;;
21120;SDS011;12519;43.318;21.898;2023-01-29T11:13:13;22.0;;;17.0;;
21120;SDS011;12519;43.318;21.898;2023-01-29T11:18:03;22.0;;;17.0;;
21120;SDS011;12519;43.318;21.898;2023-01-29T11:22:53;21.0;;;17.0;;
21120;SDS011;12519;43.318;21.898;2023-01-29T11:27:33;21.0;;;17.0;;
21120;SDS011;12519;43.318;21.898;2023-01-29T11:32:32;20.0;;;17.0;;
21120;SDS011;12519;43.318;21.898;2023-01-29T11:37:15;20.0;;;17.0;;
21120;SDS011;12519;43.318;21.898;2023-01-29T11:41:56;22.0;;;18.0;;
21120;SDS011;12519;43.318;21.898;2023-01-29T11:46:39;22.0;;;18.0;;
21120;SDS011;12519;43.318;21.898;2023-01-29T11:51:22;25.0;;;19.0;;
21120;SDS011;12519;43.318;21.898;2023-01-29T11:56:16;25.0;;;19.0;;
21120;SDS011;12519;43.318;21.898;2023-01-29T12:01:08;23.0;;;19.0;;
21120;SDS011;12519;43.318;21.898;2023-01-29T12:05:55;23.0;;;19.0;;
21120;SDS011;12519;43.318;21.898;2023-01-29T12:10:40;23.0;;;19.0;;
21120;SDS011;12519;43.318;21.898;2023-01-29T12:15:21;21.0;;;19.0;;
21120;SDS011;12519;43.318;21.898;2023-01-29T12:20:03;21.0;;;19.0;;
21120;SDS011;12519;43.318;21.898;2023-01-29T12:25:06;24.0;;;20.0;;
21120;SDS011;12519;43.318;21.898;2023-01-29T12:30:17;24.0;;;20.0;;
21120;SDS011;12519;43.318;21.898;2023-01-29T12:35:18;27.0;;;22.0;;
21120;SDS011;12519;43.318;21.898;2023-01-29T12:40:12;27.0;;;22.0;;
21120;SDS011;12519;43.318;21.898;2023-01-29T12:45:02;34.0;;;24.0;;
21120;SDS011;12519;43.318;21.898;2023-01-29T12:50:00;34.0;;;24.0;;
21120;SDS011;12519;43.318;21.898;2023-01-29T12:55:01;40.0;;;27.0;;
21120;SDS011;12519;43.318;21.898;2023-01-29T13:00:03;40.0;;;27.0;;
21120;SDS011;12519;43.318;21.898;2023-01-29T13:05:06;41.0;;;26.0;;
21120;SDS011;12519;43.318;21.898;2023-01-29T13:10:13;41.0;;;26.0;;
21120;SDS011;12519;43.318;21.898;2023-01-29T13:15:19;42.0;;;24.0;;
21120;SDS011;12519;43.318;21.898;2023-01-29T13:20:20;42.0;;;24.0;;
21120;SDS011;12519;43.318;21.898;2023-01-29T13:25:14;36.0;;;25.0;;
21120;SDS011;12519;43.318;21.898;2023-01-29T13:29:56;36.0;;;25.0;;
21120;SDS011;12519;43.318;21.898;2023-01-29T13:34:42;30.0;;;26.0;;
21120;SDS011;12519;43.318;21.898;2023-01-29T13:39:29;30.0;;;26.0;;
21120;SDS011;12519;43.318;21.898;2023-01-29T13:44:24;34.0;;;26.0;;
21120;SDS011;12519;43.318;21.898;2023-01-29T13:49:26;34.0;;;26.0;;
21120;SDS011;12519;43.318;21.898;2023-01-29T13:54:24;39.0;;;26.0;;
21120;SDS011;12519;43.318;21.898;2023-01-29T13:59:04;39.0;;;26.0;;
21120;SDS011;12519;43.318;21.898;2023-01-29T14:04:22;34.0;;;25.0;;
21120;SDS011;12519;43.318;21.898;2023-01-29T14:11:32;30.0;;;24.0;;
21120;SDS011;12519;43.318;21.898;2023-01-29T14:16:34;30.0;;;24.0;;
21120;SDS011;12519;43.318;21.898;2023-01-29T14:21:20;30.0;;;24.0;;
21120;SDS011;12519;43.318;21.898;2023-01-29T14:26:43;32.0;;;24.0;;
21120;SDS011;12519;43.318;21.898;2023-01-29T14:31:39;34.0;;;25.0;;
21120;SDS011;12519;43.318;21.898;2023-01-29T14:36:38;34.0;;;25.0;;
21120;SDS011;12519;43.318;21.898;2023-01-29T14:41:27;34.0;;;24.0;;
21120;SDS011;12519;43.318;21.898;2023-01-29T14:46:48;34.0;;;24.0;;
21120;SDS011;12519;43.318;21.898;2023-01-29T14:51:33;33.0;;;23.0;;
21120;SDS011;12519;43.318;21.898;2023-01-29T14:56:28;33.0;;;23.0;;
21120;SDS011;12519;43.318;21.898;2023-01-29T15:01:23;33.0;;;23.0;;
21120;SDS011;12519;43.318;21.898;2023-01-29T15:06:19;28.0;;;22.0;;
21120;SDS011;12519;43.318;21.898;2023-01-29T15:11:29;24.0;;;22.0;;
21120;SDS011;12519;43.318;21.898;2023-01-29T15:16:35;24.0;;;22.0;;
21120;SDS011;12519;43.318;21.898;2023-01-29T15:21:36;28.0;;;22.0;;
21120;SDS011;12519;43.318;21.898;2023-01-29T15:26:23;28.0;;;22.0;;
21120;SDS011;12519;43.318;21.898;2023-01-29T15:31:04;28.0;;;22.0;;
21120;SDS011;12519;43.318;21.898;2023-01-29T15:35:57;32.0;;;23.0;;
21120;SDS011;12519;43.318;21.898;2023-01-29T15:40:41;32.0;;;23.0;;
21120;SDS011;12519;43.318;21.898;2023-01-29T15:45:32;32.0;;;26.0;;
21120;SDS011;12519;43.318;21.898;2023-01-29T15:50:16;32.0;;;26.0;;
21120;SDS011;12519;43.318;21.898;2023-01-29T15:54:55;32.0;;;28.0;;
21120;SDS011;12519;43.318;21.898;2023-01-29T15:59:44;32.0;;;28.0;;
21120;SDS011;12519;43.318;21.898;2023-01-29T16:04:27;39.0;;;30.0;;
21120;SDS011;12519;43.318;21.898;2023-01-29T16:09:07;39.0;;;30.0;;
21120;SDS011;12519;43.318;21.898;2023-01-29T16:14:01;46.0;;;33.0;;
21120;SDS011;12519;43.318;21.898;2023-01-29T16:18:44;46.0;;;33.0;;
21120;SDS011;12519;43.318;21.898;2023-01-29T16:23:26;49.0;;;36.0;;
21120;SDS011;12519;43.318;21.898;2023-01-29T16:28:16;49.0;;;36.0;;
21120;SDS011;12519;43.318;21.898;2023-01-29T16:33:01;52.0;;;38.0;;
21120;SDS011;12519;43.318;21.898;2023-01-29T16:37:50;52.0;;;38.0;;
21120;SDS011;12519;43.318;21.898;2023-01-29T16:42:42;47.0;;;35.0;;
21120;SDS011;12519;43.318;21.898;2023-01-29T16:47:28;47.0;;;35.0;;
21120;SDS011;12519;43.318;21.898;2023-01-29T16:52:19;42.0;;;32.0;;
21120;SDS011;12519;43.318;21.898;2023-01-29T16:57:14;42.0;;;32.0;;
21120;SDS011;12519;43.318;21.898;2023-01-29T17:02:21;36.0;;;28.0;;
21120;SDS011;12519;43.318;21.898;2023-01-29T17:07:14;36.0;;;28.0;;
21120;SDS011;12519;43.318;21.898;2023-01-29T17:11:56;30.0;;;24.0;;
21120;SDS011;12519;43.318;21.898;2023-01-29T17:16:55;30.0;;;24.0;;
21120;SDS011;12519;43.318;21.898;2023-01-29T17:21:49;30.0;;;23.0;;
21120;SDS011;12519;43.318;21.898;2023-01-29T17:26:26;30.0;;;23.0;;
21120;SDS011;12519;43.318;21.898;2023-01-29T17:31:02;30.0;;;23.0;;
21120;SDS011;12519;43.318;21.898;2023-01-29T17:35:40;30.0;;;22.0;;
21120;SDS011;12519;43.318;21.898;2023-01-29T17:40:30;30.0;;;22.0;;
21120;SDS011;12519;43.318;21.898;2023-01-29T17:45:17;30.0;;;22.0;;
21120;SDS011;12519;43.318;21.898;2023-01-29T17:49:53;30.0;;;22.0;;
21120;SDS011;12519;43.318;21.898;2023-01-29T17:54:29;31.0;;;22.0;;
21120;SDS011;12519;43.318;21.898;2023-01-29T17:59:13;31.0;;;22.0;;
21120;SDS011;12519;43.318;21.898;2023-01-29T18:03:53;28.0;;;22.0;;
21120;SDS011;12519;43.318;21.898;2023-01-29T18:08:32;28.0;;;22.0;;
21120;SDS011;12519;43.318;21.898;2023-01-29T18:13:14;26.0;;;23.0;;
21120;SDS011;12519;43.318;21.898;2023-01-29T18:17:50;26.0;;;23.0;;
21120;SDS011;12519;43.318;21.898;2023-01-29T18:22:27;32.0;;;26.0;;
21120;SDS011;12519;43.318;21.898;2023-01-29T18:27:03;32.0;;;26.0;;
21120;SDS011;12519;43.318;21.898;2023-01-29T18:31:41;32.0;;;26.0;;
21120;SDS011;12519;43.318;21.898;2023-01-29T18:36:17;37.0;;;28.0;;
21120;SDS011;12519;43.318;21.898;2023-01-29T18:41:02;37.0;;;28.0;;
21120;SDS011;12519;43.318;21.898;2023-01-29T18:45:41;38.0;;;28.0;;
21120;SDS011;12519;43.318;21.898;2023-01-29T18:50:18;38.0;;;28.0;;
21120;SDS011;12519;43.318;21.898;2023-01-29T18:54:55;38.0;;;27.0;;
21120;SDS011;12519;43.318;21.898;2023-01-29T18:59:31;38.0;;;27.0;;
21120;SDS011;12519;43.318;21.898;2023-01-29T19:04:07;36.0;;;24.0;;
21120;SDS011;12519;43.318;21.898;2023-01-29T19:08:44;36.0;;;24.0;;
21120;SDS011;12519;43.318;21.898;2023-01-29T19:13:20;33.0;;;22.0;;
21120;SDS011;12519;43.318;21.898;2023-01-29T19:17:57;33.0;;;22.0;;
21120;SDS011;12519;43.318;21.898;2023-01-29T19:22:33;28.0;;;20.0;;
21120;SDS011;12519;43.318;21.898;2023-01-29T19:27:10;28.0;;;20.0;;
21120;SDS011;12519;43.318;21.898;2023-01-29T19:31:47;28.0;;;20.0;;
21120;SDS011;12519;43.318;21.898;2023-01-29T19:36:24;22.0;;;18.0;;
21120;SDS011;12519;43.318;21.898;2023-01-29T19:41:01;22.0;;;18.0;;
21120;SDS011;12519;43.318;21.898;2023-01-29T19:45:39;26.0;;;20.0;;
21120;SDS011;12519;43.318;21.898;2023-01-29T19:50:17;26.0;;;20.0;;
21120;SDS011;12519;43.318;21.898;2023-01-29T19:54:55;30.0;;;22.0;;
21120;SDS011;12519;43.318;21.898;2023-01-29T19:59:32;30.0;;;22.0;;
21120;SDS011;12519;43.318;21.898;2023-01-29T20:04:08;31.0;;;26.0;;
21120;SDS011;12519;43.318;21.898;2023-01-29T20:08:46;31.0;;;26.0;;
21120;SDS011;12519;43.318;21.898;2023-01-29T20:13:22;32.0;;;29.0;;
21120;SDS011;12519;43.318;21.898;2023-01-29T20:17:59;32.0;;;29.0;;
21120;SDS011;12519;43.318;21.898;2023-01-29T20:22:35;40.0;;;32.0;;
21120;SDS011;12519;43.318;21.898;2023-01-29T20:27:11;40.0;;;32.0;;
21120;SDS011;12519;43.318;21.898;2023-01-29T20:31:48;40.0;;;32.0;;
21120;SDS011;12519;43.318;21.898;2023-01-29T20:36:24;47.0;;;34.0;;
21120;SDS011;12519;43.318;21.898;2023-01-29T20:41:01;47.0;;;34.0;;
21120;SDS011;12519;43.318;21.898;2023-01-29T20:45:46;38.0;;;28.0;;
21120;SDS011;12519;43.318;21.898;2023-01-29T20:50:22;38.0;;;28.0;;
21120;SDS011;12519;43.318;21.898;2023-01-29T20:54:59;30.0;;;23.0;;
21120;SDS011;12519;43.318;21.898;2023-01-29T20:59:35;30.0;;;23.0;;
21120;SDS011;12519;43.318;21.898;2023-01-29T21:04:11;28.0;;;22.0;;
21120;SDS011;12519;43.318;21.898;2023-01-29T21:08:48;28.0;;;22.0;;
21120;SDS011;12519;43.318;21.898;2023-01-29T21:13:24;27.0;;;20.0;;
21120;SDS011;12519;43.318;21.898;2023-01-29T21:18:00;27.0;;;20.0;;
21120;SDS011;12519;43.318;21.898;2023-01-29T21:22:37;27.0;;;21.0;;
21120;SDS011;12519;43.318;21.898;2023-01-29T21:27:13;27.0;;;21.0;;
21120;SDS011;12519;43.318;21.898;2023-01-29T21:31:50;27.0;;;21.0;;
21120;SDS011;12519;43.318;21.898;2023-01-29T21:36:26;27.0;;;22.0;;
21120;SDS011;12519;43.318;21.898;2023-01-29T21:41:03;27.0;;;22.0;;
21120;SDS011;12519;43.318;21.898;2023-01-29T21:45:44;26.0;;;20.0;;
21120;SDS011;12519;43.318;21.898;2023-01-29T21:50:20;26.0;;;20.0;;
21120;SDS011;12519;43.318;21.898;2023-01-29T21:54:57;25.0;;;18.0;;
21120;SDS011;12519;43.318;21.898;2023-01-29T21:59:33;25.0;;;18.0;;
21120;SDS011;12519;43.318;21.898;2023-01-29T22:04:10;30.0;;;20.0;;
21120;SDS011;12519;43.318;21.898;2023-01-29T22:08:46;30.0;;;20.0;;
21120;SDS011;12519;43.318;21.898;2023-01-29T22:13:25;35.0;;;22.0;;
21120;SDS011;12519;43.318;21.898;2023-01-29T22:18:01;35.0;;;22.0;;
21120;SDS011;12519;43.318;21.898;2023-01-29T22:22:40;30.0;;;22.0;;
21120;SDS011;12519;43.318;21.898;2023-01-29T22:27:17;30.0;;;22.0;;
21120;SDS011;12519;43.318;21.898;2023-01-29T22:31:54;30.0;;;22.0;;
21120;SDS011;12519;43.318;21.898;2023-01-29T22:36:30;25.0;;;21.0;;
21120;SDS011;12519;43.318;21.898;2023-01-29T22:41:07;25.0;;;21.0;;
21120;SDS011;12519;43.318;21.898;2023-01-29T22:45:47;25.0;;;20.0;;
21120;SDS011;12519;43.318;21.898;2023-01-29T22:50:24;25.0;;;20.0;;
21120;SDS011;12519;43.318;21.898;2023-01-29T22:55:00;25.0;;;20.0;;
21120;SDS011;12519;43.318;21.898;2023-01-29T22:59:36;25.0;;;20.0;;
21120;SDS011;12519;43.318;21.898;2023-01-29T23:04:13;27.0;;;20.0;;
21120;SDS011;12519;43.318;21.898;2023-01-29T23:08:49;27.0;;;20.0;;
21120;SDS011;12519;43.318;21.898;2023-01-29T23:13:26;29.0;;;21.0;;
21120;SDS011;12519;43.318;21.898;2023-01-29T23:18:03;29.0;;;21.0;;
21120;SDS011;12519;43.318;21.898;2023-01-29T23:22:41;23.0;;;18.0;;
21120;SDS011;12519;43.318;21.898;2023-01-29T23:27:17;23.0;;;18.0;;
21120;SDS011;12519;43.318;21.898;2023-01-29T23:31:53;23.0;;;18.0;;
21120;SDS011;12519;43.318;21.898;2023-01-29T23:36:29;17.0;;;16.0;;
21120;SDS011;12519;43.318;21.898;2023-01-29T23:41:06;17.0;;;16.0;;
21120;SDS011;12519;43.318;21.898;2023-01-29T23:45:43;22.0;;;17.0;;
21120;SDS011;12519;43.318;21.898;2023-01-29T23:50:19;22.0;;;17.0;;
21120;SDS011;12519;43.318;21.898;2023-01-29T23:54:55;26.0;;;18.0;;
21120;SDS011;12519;43.318;21.898;2023-01-29T23:59:31;26.0;;;18.0;;
